createdAt,value
2022-12-31T00:03:34.303Z,1.52
2022-12-31T00:06:01.105Z,1.43
2022-12-31T00:08:28.064Z,1.65
2022-12-31T00:10:54.757Z,1.66
2022-12-31T00:13:21.825Z,1.43
2022-12-31T00:15:48.565Z,1.55
2022-12-31T00:18:15.327Z,1.77
2022-12-31T00:20:42.353Z,1.45
2022-12-31T00:23:10.698Z,1.35
2022-12-31T00:25:38.284Z,1.76
2022-12-31T00:28:05.469Z,1.61
2022-12-31T00:30:32.350Z,1.59
2022-12-31T00:32:59.166Z,1.76
2022-12-31T00:35:26.888Z,1.57
2022-12-31T00:37:53.673Z,1.37
2022-12-31T00:40:20.517Z,1.43
2022-12-31T00:42:47.341Z,1.82
2022-12-31T00:45:14.177Z,1.77
2022-12-31T00:47:40.907Z,1.90
2022-12-31T00:50:07.977Z,1.71
2022-12-31T00:52:34.741Z,1.72
2022-12-31T00:55:01.456Z,1.82
2022-12-31T00:57:28.190Z,1.79
2022-12-31T00:59:54.956Z,1.99
2022-12-31T01:02:21.879Z,1.90
2022-12-31T01:04:48.838Z,2.00
2022-12-31T01:07:15.575Z,2.08
2022-12-31T01:09:42.399Z,2.05
2022-12-31T01:12:09.271Z,1.91
2022-12-31T01:14:36.004Z,1.96
2022-12-31T01:17:02.894Z,2.02
2022-12-31T01:19:29.960Z,1.98
2022-12-31T01:21:57.222Z,2.01
2022-12-31T01:24:24.744Z,2.06
2022-12-31T01:26:51.951Z,2.29
2022-12-31T01:29:18.864Z,2.18
2022-12-31T01:31:45.892Z,2.27
2022-12-31T01:34:12.737Z,2.12
2022-12-31T01:36:39.597Z,2.07
2022-12-31T01:39:08.058Z,2.12
2022-12-31T01:41:44.960Z,2.19
2022-12-31T01:44:11.701Z,2.21
2022-12-31T01:46:52.208Z,2.20
2022-12-31T01:49:24.586Z,2.34
2022-12-31T01:51:56.583Z,2.20
2022-12-31T01:54:27.409Z,2.53
2022-12-31T01:56:56.544Z,2.56
2022-12-31T01:59:26.980Z,2.46
2022-12-31T02:01:54.590Z,2.32
2022-12-31T02:04:24.096Z,2.33
2022-12-31T02:06:56.434Z,2.32
2022-12-31T02:09:23.235Z,2.25
2022-12-31T02:11:49.973Z,2.32
2022-12-31T02:14:30.892Z,2.39
2022-12-31T02:17:16.224Z,2.45
2022-12-31T02:20:04.243Z,2.60
2022-12-31T02:22:55.926Z,2.45
2022-12-31T02:25:34.793Z,2.45
2022-12-31T02:28:04.568Z,2.41
2022-12-31T02:30:33.131Z,2.31
2022-12-31T02:33:13.982Z,2.46
2022-12-31T02:35:48.301Z,2.41
2022-12-31T02:38:30.232Z,2.56
2022-12-31T02:40:57.961Z,2.44
2022-12-31T02:43:25.505Z,2.67
2022-12-31T02:46:01.248Z,2.54
2022-12-31T02:48:37.168Z,2.45
2022-12-31T02:51:19.289Z,2.44
2022-12-31T02:53:48.945Z,2.52
2022-12-31T02:56:38.456Z,2.77
2022-12-31T02:59:29.965Z,2.65
2022-12-31T03:02:16.683Z,2.65
2022-12-31T03:04:49.654Z,2.73
2022-12-31T03:07:28.001Z,2.69
2022-12-31T03:09:55.558Z,2.84
2022-12-31T03:12:47.005Z,2.89
2022-12-31T03:15:21.745Z,2.97
2022-12-31T03:17:49.817Z,2.64
2022-12-31T03:20:35.352Z,2.69
2022-12-31T03:23:04.012Z,2.65
2022-12-31T03:25:38.153Z,2.71
2022-12-31T03:28:11.333Z,2.61
2022-12-31T03:30:41.094Z,2.75
2022-12-31T03:33:09.156Z,2.50
2022-12-31T03:35:37.759Z,2.69
2022-12-31T03:38:05.094Z,2.47
2022-12-31T03:40:34.997Z,2.77
2022-12-31T03:43:01.837Z,2.42
2022-12-31T03:45:28.712Z,2.51
2022-12-31T03:47:55.451Z,2.42
2022-12-31T03:50:22.405Z,2.40
2022-12-31T03:52:49.205Z,2.17
2022-12-31T03:55:16.084Z,2.31
2022-12-31T03:57:43.233Z,2.09
2022-12-31T04:00:14.200Z,1.95
2022-12-31T04:02:41.694Z,1.96
2022-12-31T04:05:08.916Z,2.13
2022-12-31T04:07:35.810Z,1.95
2022-12-31T04:10:04.468Z,2.07
2022-12-31T04:12:31.284Z,2.13
2022-12-31T04:14:58.628Z,2.07
2022-12-31T04:17:25.685Z,2.09
2022-12-31T04:19:52.511Z,2.30
2022-12-31T04:22:19.735Z,2.16
2022-12-31T04:24:46.569Z,2.26
2022-12-31T04:27:14.094Z,2.14
2022-12-31T04:29:40.837Z,2.09
2022-12-31T04:32:08.804Z,2.18
2022-12-31T04:34:36.002Z,2.43
2022-12-31T04:37:03.406Z,2.47
2022-12-31T04:39:30.310Z,2.36
2022-12-31T04:41:57.094Z,2.73
2022-12-31T04:44:23.873Z,2.57
2022-12-31T04:46:50.574Z,2.59
2022-12-31T04:49:17.323Z,2.51
2022-12-31T04:51:44.139Z,2.76
2022-12-31T04:54:11.136Z,2.82
2022-12-31T04:56:37.953Z,2.94
2022-12-31T04:59:05.436Z,2.91
2022-12-31T05:01:33.199Z,2.83
2022-12-31T05:04:00.354Z,2.89
2022-12-31T05:06:27.244Z,3.00
2022-12-31T05:08:54.357Z,3.16
2022-12-31T05:11:21.173Z,3.25
2022-12-31T05:13:47.927Z,3.37
2022-12-31T05:16:14.815Z,3.42
2022-12-31T05:18:41.635Z,3.47
2022-12-31T05:21:08.568Z,3.63
2022-12-31T05:23:35.661Z,3.55
2022-12-31T05:26:02.479Z,3.64
2022-12-31T05:28:29.343Z,3.72
2022-12-31T05:30:56.345Z,3.59
2022-12-31T05:33:23.332Z,3.57
2022-12-31T05:35:50.625Z,3.66
2022-12-31T05:38:17.433Z,3.61
2022-12-31T05:40:44.435Z,3.67
2022-12-31T05:43:11.276Z,3.80
2022-12-31T05:45:38.048Z,3.72
2022-12-31T05:48:05.151Z,4.07
2022-12-31T05:50:32.067Z,3.91
2022-12-31T05:52:58.879Z,3.91
2022-12-31T05:55:25.654Z,4.12
2022-12-31T05:57:52.372Z,3.84
2022-12-31T06:00:19.255Z,3.69
2022-12-31T06:02:46.336Z,3.65
2022-12-31T06:05:13.185Z,3.82
2022-12-31T06:07:39.992Z,3.57
2022-12-31T06:10:07.864Z,3.77
2022-12-31T06:12:35.593Z,3.50
2022-12-31T06:15:02.487Z,3.40
2022-12-31T06:17:30.315Z,3.59
2022-12-31T06:19:57.110Z,3.49
2022-12-31T06:22:23.987Z,3.32
2022-12-31T06:24:50.719Z,3.44
2022-12-31T06:27:17.506Z,3.48
2022-12-31T06:29:45.825Z,3.45
2022-12-31T06:32:12.793Z,3.32
2022-12-31T06:34:39.536Z,3.22
2022-12-31T06:37:06.380Z,3.32
2022-12-31T06:39:33.188Z,3.30
2022-12-31T06:42:00.377Z,3.18
2022-12-31T06:44:27.161Z,3.37
2022-12-31T06:46:53.961Z,3.21
2022-12-31T06:49:20.839Z,3.47
2022-12-31T06:51:48.011Z,3.31
2022-12-31T06:54:14.862Z,3.32
2022-12-31T06:56:42.266Z,3.42
2022-12-31T06:59:24.309Z,3.43
2022-12-31T07:02:14.457Z,3.25
2022-12-31T07:04:55.086Z,3.35
2022-12-31T07:07:32.807Z,3.40
2022-12-31T07:10:29.904Z,3.05
2022-12-31T07:13:08.993Z,3.00
2022-12-31T07:16:00.292Z,2.95
2022-12-31T07:18:52.976Z,3.22
2022-12-31T07:21:30.179Z,3.12
2022-12-31T07:23:57.187Z,3.04
2022-12-31T07:26:36.174Z,3.23
2022-12-31T07:29:17.179Z,3.32
2022-12-31T07:31:53.107Z,3.26
2022-12-31T07:34:46.521Z,3.23
2022-12-31T07:37:38.292Z,3.49
2022-12-31T07:40:38.936Z,3.55
2022-12-31T07:43:14.873Z,3.69
2022-12-31T07:45:50.848Z,3.56
2022-12-31T07:48:26.920Z,3.60
2022-12-31T07:50:56.171Z,3.73
2022-12-31T07:53:24.816Z,3.92
2022-12-31T07:56:01.182Z,3.68
2022-12-31T07:58:39.948Z,3.64
2022-12-31T08:01:15.860Z,3.72
2022-12-31T08:04:00.815Z,3.68
2022-12-31T08:06:52.095Z,3.98
2022-12-31T08:09:35.830Z,3.78
2022-12-31T08:12:03.292Z,3.94
2022-12-31T08:14:31.016Z,3.83
2022-12-31T08:16:58.524Z,3.86
2022-12-31T08:19:30.106Z,4.06
2022-12-31T08:22:32.686Z,4.03
2022-12-31T08:25:02.469Z,4.27
2022-12-31T08:28:01.052Z,4.10
2022-12-31T08:30:53.889Z,4.05
2022-12-31T08:33:38.391Z,4.15
2022-12-31T08:36:33.180Z,4.27
2022-12-31T08:39:21.295Z,4.19
2022-12-31T08:41:55.238Z,4.17
2022-12-31T08:44:46.165Z,4.18
2022-12-31T08:47:48.688Z,4.38
2022-12-31T08:50:18.026Z,4.53
2022-12-31T08:52:45.939Z,4.55
2022-12-31T08:55:15.580Z,4.60
2022-12-31T08:57:58.219Z,4.78
2022-12-31T09:00:27.651Z,4.78
2022-12-31T09:03:13.393Z,4.93
2022-12-31T09:05:58.367Z,4.93
2022-12-31T09:08:55.889Z,4.92
2022-12-31T09:11:23.600Z,5.03
2022-12-31T09:13:56.389Z,5.09
2022-12-31T09:16:34.278Z,5.11
2022-12-31T09:19:01.159Z,5.18
2022-12-31T09:21:28.030Z,5.25
2022-12-31T09:23:55.060Z,5.32
2022-12-31T09:26:39.917Z,5.53
2022-12-31T09:29:25.354Z,5.53
2022-12-31T09:32:07.189Z,5.68
2022-12-31T09:34:57.031Z,5.60
2022-12-31T09:37:55.288Z,5.70
2022-12-31T09:40:46.716Z,5.85
2022-12-31T09:43:16.427Z,5.89
2022-12-31T09:46:00.045Z,5.94
2022-12-31T09:48:51.987Z,6.00
2022-12-31T09:51:27.971Z,6.27
2022-12-31T09:54:13.031Z,6.18
2022-12-31T09:57:01.775Z,6.15
2022-12-31T09:59:45.838Z,6.22
2022-12-31T10:02:50.979Z,6.56
2022-12-31T10:05:36.402Z,6.46
2022-12-31T10:08:35.901Z,6.49
2022-12-31T10:11:29.445Z,6.60
2022-12-31T10:14:22.303Z,6.43
2022-12-31T10:16:58.965Z,6.54
2022-12-31T10:20:02.983Z,6.60
2022-12-31T10:22:51.547Z,6.83
2022-12-31T10:25:21.237Z,6.69
2022-12-31T10:28:31.043Z,6.50
2022-12-31T10:31:07.991Z,6.42
2022-12-31T10:34:05.139Z,6.51
2022-12-31T10:36:52.150Z,6.61
2022-12-31T10:39:29.880Z,6.56
2022-12-31T10:42:26.244Z,6.61
2022-12-31T10:45:13.283Z,6.62
2022-12-31T10:48:08.654Z,6.90
2022-12-31T10:51:03.148Z,7.04
2022-12-31T10:53:32.714Z,6.93
2022-12-31T10:56:21.534Z,6.96
2022-12-31T10:59:25.721Z,6.99
2022-12-31T11:02:16.179Z,7.29
2022-12-31T11:05:10.406Z,7.15
2022-12-31T11:08:08.911Z,7.11
2022-12-31T11:10:47.496Z,7.21
2022-12-31T11:13:41.864Z,7.48
2022-12-31T11:16:26.965Z,7.56
2022-12-31T11:19:23.107Z,7.58
2022-12-31T11:22:25.709Z,7.68
2022-12-31T11:25:11.430Z,8.10
2022-12-31T11:27:47.691Z,8.36
2022-12-31T11:30:40.361Z,8.27
2022-12-31T11:33:07.268Z,8.57
2022-12-31T11:36:11.138Z,8.61
2022-12-31T11:38:51.755Z,8.54
2022-12-31T11:41:27.394Z,8.87
2022-12-31T11:44:13.377Z,8.89
2022-12-31T11:47:07.936Z,8.96
2022-12-31T11:50:18.200Z,9.08
2022-12-31T11:53:24.160Z,9.54
2022-12-31T11:56:12.824Z,9.46
2022-12-31T11:58:45.671Z,9.46
2022-12-31T12:01:25.029Z,9.38
2022-12-31T12:03:52.083Z,9.70
2022-12-31T12:06:25.884Z,9.51
2022-12-31T12:08:53.669Z,9.43
2022-12-31T12:11:26.514Z,9.57
2022-12-31T12:13:53.692Z,9.60
2022-12-31T12:16:23.138Z,9.64
2022-12-31T12:19:02.515Z,9.62
2022-12-31T12:24:05.875Z,9.75
2022-12-31T12:26:42.964Z,9.68
2022-12-31T12:29:12.926Z,9.91
2022-12-31T12:31:39.747Z,9.78
2022-12-31T12:34:21.376Z,9.99
2022-12-31T12:36:48.572Z,10.00
2022-12-31T12:39:23.233Z,9.88
2022-12-31T12:42:19.383Z,9.84
2022-12-31T12:44:46.084Z,10.16
2022-12-31T12:47:17.796Z,10.21
2022-12-31T12:49:47.267Z,10.07
2022-12-31T12:52:43.181Z,10.23
2022-12-31T12:55:28.369Z,10.21
2022-12-31T12:58:05.117Z,10.17
2022-12-31T13:00:44.763Z,10.31
2022-12-31T13:03:26.683Z,10.20
2022-12-31T13:05:56.874Z,10.43
2022-12-31T13:08:42.108Z,10.43
2022-12-31T13:11:47.230Z,10.28
2022-12-31T13:14:23.087Z,10.18
2022-12-31T13:16:59.385Z,10.17
2022-12-31T13:19:45.243Z,10.17
2022-12-31T13:22:23.435Z,10.08
2022-12-31T13:25:27.702Z,9.97
2022-12-31T13:27:58.699Z,10.02
2022-12-31T13:30:33.470Z,9.91
2022-12-31T13:33:18.515Z,9.87
2022-12-31T13:35:57.806Z,9.69
2022-12-31T13:38:48.725Z,9.59
2022-12-31T13:41:22.993Z,9.93
2022-12-31T13:44:26.491Z,9.74
2022-12-31T13:47:22.165Z,9.84
2022-12-31T13:50:02.877Z,9.56
2022-12-31T13:52:53.171Z,9.60
2022-12-31T13:55:32.454Z,9.77
2022-12-31T13:57:59.177Z,9.47
2022-12-31T14:00:31.695Z,9.35
2022-12-31T14:03:13.728Z,9.25
2022-12-31T14:06:01.156Z,9.32
2022-12-31T14:08:28.227Z,9.46
2022-12-31T14:11:07.807Z,9.30
2022-12-31T14:13:40.346Z,9.26
2022-12-31T14:16:38.107Z,9.20
2022-12-31T14:19:31.128Z,8.77
2022-12-31T14:22:17.201Z,8.94
2022-12-31T14:24:44.519Z,8.94
2022-12-31T14:27:19.802Z,8.81
2022-12-31T14:30:01.869Z,8.87
2022-12-31T14:32:34.272Z,8.77
2022-12-31T14:35:37.450Z,8.46
2022-12-31T14:38:25.786Z,8.68
2022-12-31T14:41:23.071Z,8.35
2022-12-31T14:44:20.883Z,8.24
2022-12-31T14:47:04.906Z,8.41
2022-12-31T14:49:55.968Z,8.23
2022-12-31T14:52:32.575Z,8.21
2022-12-31T14:55:21.160Z,8.45
2022-12-31T14:58:26.564Z,8.22
2022-12-31T15:00:53.738Z,8.19
2022-12-31T15:03:25.261Z,8.11
2022-12-31T15:06:01.955Z,8.09
2022-12-31T15:08:47.137Z,8.06
2022-12-31T15:11:31.477Z,8.03
2022-12-31T15:14:23.109Z,8.03
2022-12-31T15:17:08.627Z,8.09
2022-12-31T15:20:07.965Z,8.18
2022-12-31T15:22:47.421Z,8.03
2022-12-31T15:25:40.261Z,8.05
2022-12-31T15:28:31.508Z,8.07
2022-12-31T15:31:18.168Z,7.94
2022-12-31T15:34:01.214Z,7.88
2022-12-31T15:36:35.792Z,7.76
2022-12-31T15:39:11.961Z,7.90
2022-12-31T15:41:46.028Z,7.71
2022-12-31T15:44:59.503Z,7.46
2022-12-31T15:47:43.327Z,7.36
2022-12-31T15:50:20.495Z,7.36
2022-12-31T15:52:55.356Z,7.28
2022-12-31T15:55:33.945Z,7.05
2022-12-31T15:58:06.480Z,6.99
2022-12-31T16:01:10.084Z,7.04
2022-12-31T16:03:37.559Z,6.85
2022-12-31T16:06:11.669Z,7.04
2022-12-31T16:08:38.936Z,7.01
2022-12-31T16:11:07.717Z,6.70
2022-12-31T16:13:41.393Z,6.80
2022-12-31T16:16:23.757Z,6.60
2022-12-31T16:18:51.692Z,6.53
2022-12-31T16:21:38.713Z,6.73
2022-12-31T16:24:33.018Z,6.55
2022-12-31T16:27:09.283Z,6.65
2022-12-31T16:29:38.063Z,6.30
2022-12-31T16:32:05.082Z,6.21
2022-12-31T16:34:37.280Z,6.12
2022-12-31T16:37:16.031Z,6.20
2022-12-31T16:39:57.738Z,6.15
2022-12-31T16:42:28.639Z,5.98
2022-12-31T16:44:57.529Z,6.21
2022-12-31T16:47:36.184Z,5.96
2022-12-31T16:50:08.201Z,5.71
2022-12-31T16:52:41.155Z,5.88
2022-12-31T16:55:19.016Z,5.90
2022-12-31T16:57:55.649Z,5.68
2022-12-31T17:00:24.917Z,5.69
2022-12-31T17:03:21.296Z,5.17
2022-12-31T17:05:57.377Z,5.69
2022-12-31T17:08:28.022Z,5.39
2022-12-31T17:10:56.591Z,5.08
2022-12-31T17:13:29.572Z,5.47
2022-12-31T17:15:58.757Z,5.34
2022-12-31T17:18:30.448Z,5.31
2022-12-31T17:21:07.018Z,5.31
2022-12-31T17:23:35.960Z,5.49
2022-12-31T17:26:27.342Z,5.34
2022-12-31T17:28:56.754Z,5.18
2022-12-31T17:31:39.166Z,5.23
2022-12-31T17:34:15.219Z,5.10
2022-12-31T17:36:50.530Z,4.96
2022-12-31T17:39:19.108Z,5.06
2022-12-31T17:41:47.625Z,4.86
2022-12-31T17:44:24.077Z,4.70
2022-12-31T17:46:51.562Z,4.87
2022-12-31T17:49:22.765Z,4.92
2022-12-31T17:51:49.671Z,4.76
2022-12-31T17:54:18.306Z,4.54
2022-12-31T17:56:45.575Z,4.57
2022-12-31T17:59:22.771Z,4.71
2022-12-31T18:01:50.267Z,4.75
2022-12-31T18:04:19.176Z,4.76
2022-12-31T18:06:45.964Z,4.56
2022-12-31T18:09:12.849Z,4.42
2022-12-31T18:11:41.047Z,4.40
2022-12-31T18:14:08.578Z,4.52
2022-12-31T18:16:35.717Z,4.52
2022-12-31T18:19:02.793Z,4.29
2022-12-31T18:21:32.781Z,4.07
2022-12-31T18:26:28.010Z,4.18
2022-12-31T18:28:55.307Z,4.07
2022-12-31T18:31:30.342Z,3.91
2022-12-31T18:33:58.933Z,3.84
2022-12-31T18:36:27.205Z,3.93
2022-12-31T18:38:54.100Z,4.07
2022-12-31T18:41:24.480Z,3.98
2022-12-31T18:43:51.297Z,3.74
2022-12-31T18:46:21.494Z,3.74
2022-12-31T18:48:48.649Z,3.88
2022-12-31T18:51:18.133Z,3.74
2022-12-31T18:53:45.812Z,3.62
2022-12-31T18:56:15.163Z,3.79
2022-12-31T18:58:42.230Z,3.52
2022-12-31T19:01:28.498Z,3.44
2022-12-31T19:04:14.501Z,3.65
2022-12-31T19:06:42.713Z,3.57
2022-12-31T19:09:30.758Z,3.36
2022-12-31T19:11:56.953Z,3.34
2022-12-31T19:14:24.806Z,3.26
2022-12-31T19:16:54.391Z,3.44
2022-12-31T19:19:21.617Z,3.34
2022-12-31T19:21:48.311Z,3.20
2022-12-31T19:24:25.128Z,3.41
2022-12-31T19:26:52.012Z,3.32
2022-12-31T19:29:24.131Z,3.14
2022-12-31T19:31:51.118Z,3.10
2022-12-31T19:34:18.059Z,3.17
2022-12-31T19:36:45.267Z,3.21
2022-12-31T19:39:18.702Z,3.15
2022-12-31T19:41:46.297Z,3.43
2022-12-31T19:44:17.642Z,3.16
2022-12-31T19:46:45.475Z,2.98
2022-12-31T19:49:15.353Z,3.07
2022-12-31T19:51:42.422Z,2.96
2022-12-31T19:54:12.415Z,3.11
2022-12-31T19:56:39.514Z,3.16
2022-12-31T19:59:07.841Z,2.89
2022-12-31T20:01:34.755Z,2.74
2022-12-31T20:04:01.611Z,2.74
2022-12-31T20:06:28.651Z,2.95
2022-12-31T20:08:55.402Z,2.86
2022-12-31T20:11:23.746Z,2.66
2022-12-31T20:13:54.811Z,2.78
2022-12-31T20:16:24.670Z,2.72
2022-12-31T20:18:51.633Z,2.65
2022-12-31T20:21:21.092Z,2.67
2022-12-31T20:23:49.856Z,2.60
2022-12-31T20:26:17.822Z,2.61
2022-12-31T20:28:45.098Z,2.58
2022-12-31T20:31:17.351Z,2.58
2022-12-31T20:33:44.955Z,2.42
2022-12-31T20:36:14.742Z,2.39
2022-12-31T20:38:41.667Z,2.54
2022-12-31T20:41:14.475Z,2.52
2022-12-31T20:43:41.532Z,2.48
2022-12-31T20:46:15.588Z,2.45
2022-12-31T20:48:44.102Z,2.49
2022-12-31T20:51:12.080Z,2.35
2022-12-31T20:53:39.122Z,2.43
2022-12-31T20:56:08.044Z,2.44
2022-12-31T20:58:35.087Z,2.42
2022-12-31T21:01:05.204Z,2.39
2022-12-31T21:04:03.545Z,2.34
2022-12-31T21:06:18.730Z,2.16
2022-12-31T21:08:45.648Z,2.24
2022-12-31T21:11:31.894Z,2.16
2022-12-31T21:13:59.165Z,2.03
2022-12-31T21:16:26.819Z,2.05
2022-12-31T21:18:54.408Z,2.01
2022-12-31T21:21:21.411Z,2.09
2022-12-31T21:23:48.209Z,2.05
2022-12-31T21:26:15.355Z,1.95
2022-12-31T21:28:42.587Z,1.93
2022-12-31T21:31:12.537Z,1.81
2022-12-31T21:33:39.524Z,1.81
2022-12-31T21:36:06.492Z,1.87
2022-12-31T21:38:36.839Z,1.80
2022-12-31T21:41:05.728Z,1.86
2022-12-31T21:43:32.472Z,2.19
2022-12-31T21:46:03.796Z,2.16
2022-12-31T21:48:30.648Z,2.01
2022-12-31T21:51:27.283Z,1.90
2022-12-31T21:53:54.142Z,1.86
2022-12-31T21:56:21.653Z,1.80
2022-12-31T21:59:14.919Z,1.84
2022-12-31T22:02:00.496Z,1.83
2022-12-31T22:05:00.989Z,1.74
2022-12-31T22:07:14.834Z,1.69
2022-12-31T22:09:41.649Z,1.77
2022-12-31T22:12:08.401Z,1.80
2022-12-31T22:14:35.214Z,1.65
2022-12-31T22:17:01.930Z,1.55
2022-12-31T22:19:28.657Z,1.54
2022-12-31T22:21:55.441Z,1.54
2022-12-31T22:24:22.166Z,1.42
2022-12-31T22:26:48.934Z,1.46
2022-12-31T22:29:15.726Z,1.48
2022-12-31T22:31:42.534Z,1.72
2022-12-31T22:34:09.270Z,1.59
2022-12-31T22:36:36.010Z,1.58
2022-12-31T22:39:02.714Z,1.76
2022-12-31T22:41:29.485Z,1.58
2022-12-31T22:44:03.806Z,1.54
2022-12-31T22:46:31.907Z,1.53
2022-12-31T22:48:59.898Z,1.54
2022-12-31T22:51:56.549Z,1.45
2022-12-31T22:54:14.812Z,1.44
2022-12-31T22:56:41.919Z,1.38
2022-12-31T22:59:09.392Z,1.28
2022-12-31T23:01:36.476Z,1.33
2022-12-31T23:04:03.795Z,1.25
2022-12-31T23:06:31.003Z,1.22
2022-12-31T23:09:16.201Z,1.15
2022-12-31T23:11:45.710Z,1.08
2022-12-31T23:14:36.242Z,1.17
2022-12-31T23:17:31.401Z,1.52
2022-12-31T23:20:20.778Z,1.40
2022-12-31T23:23:07.920Z,1.21
2022-12-31T23:25:37.236Z,1.25
2022-12-31T23:28:05.010Z,1.44
2022-12-31T23:30:32.092Z,1.32
2022-12-31T23:32:58.912Z,1.16
2022-12-31T23:35:25.918Z,1.16
2022-12-31T23:37:52.674Z,1.13
2022-12-31T23:40:21.860Z,1.09
2022-12-31T23:42:51.936Z,1.11
2022-12-31T23:45:18.656Z,1.11
2022-12-31T23:47:45.411Z,1.00
2022-12-31T23:50:12.118Z,1.12
2022-12-31T23:52:38.885Z,1.40
2022-12-31T23:55:05.877Z,1.38
2022-12-31T23:57:32.582Z,1.26
2022-12-31T23:59:59.738Z,1.23
